createdAt,value
2018-12-31T00:01:34.981Z,1.60
2018-12-31T00:04:05.407Z,1.60
2018-12-31T00:06:54.870Z,1.50
2018-12-31T00:09:25.260Z,1.50
2018-12-31T00:12:14.711Z,1.60
2018-12-31T00:14:57.139Z,1.60
2018-12-31T00:17:39.224Z,1.60
2018-12-31T00:20:21.271Z,1.60
2018-12-31T00:23:03.497Z,1.60
2018-12-31T00:25:45.599Z,1.50
2018-12-31T00:28:27.879Z,1.50
2018-12-31T00:31:10.128Z,1.60
2018-12-31T00:33:51.837Z,1.70
2018-12-31T00:36:34.203Z,1.70
2018-12-31T00:39:16.240Z,1.70
2018-12-31T00:41:46.787Z,1.80
2018-12-31T00:44:36.317Z,1.70
2018-12-31T00:47:18.413Z,1.70
2018-12-31T00:50:00.755Z,1.70
2018-12-31T00:52:43.055Z,1.80
2018-12-31T00:58:04.895Z,1.90
2018-12-31T01:00:46.961Z,1.80
2018-12-31T01:03:17.396Z,1.60
2018-12-31T01:06:06.847Z,1.70
2018-12-31T01:08:49.959Z,1.60
2018-12-31T01:11:31.919Z,1.70
2018-12-31T01:14:02.284Z,1.70
2018-12-31T01:16:51.695Z,1.80
2018-12-31T01:19:34.171Z,1.80
2018-12-31T01:22:16.195Z,1.90
2018-12-31T01:24:58.347Z,1.90
2018-12-31T01:27:40.417Z,2.00
2018-12-31T01:30:22.299Z,1.90
2018-12-31T01:33:04.773Z,1.80
2018-12-31T01:35:47.067Z,1.90
2018-12-31T01:38:28.915Z,1.80
2018-12-31T01:40:59.491Z,1.90
2018-12-31T01:43:49.203Z,1.80
2018-12-31T01:46:31.023Z,1.90
2018-12-31T01:49:13.334Z,1.80
2018-12-31T01:51:43.965Z,1.80
2018-12-31T01:57:15.171Z,1.80
2018-12-31T01:59:56.935Z,1.70
2018-12-31T02:02:39.159Z,1.70
2018-12-31T02:05:21.283Z,1.80
2018-12-31T02:08:03.383Z,1.80
2018-12-31T02:10:46.653Z,1.90
2018-12-31T02:13:28.591Z,1.80
2018-12-31T02:16:11.043Z,1.80
2018-12-31T02:18:53.123Z,1.70
2018-12-31T02:21:35.196Z,1.70
2018-12-31T02:24:05.659Z,1.80
2018-12-31T02:26:55.127Z,1.60
2018-12-31T02:29:36.958Z,1.60
2018-12-31T02:32:19.213Z,1.50
2018-12-31T02:35:01.382Z,1.50
2018-12-31T02:37:31.721Z,1.50
2018-12-31T02:40:13.943Z,1.50
2018-12-31T02:42:56.330Z,1.40
2018-12-31T02:45:26.722Z,1.50
2018-12-31T02:48:08.947Z,1.50
2018-12-31T02:50:50.831Z,1.50
2018-12-31T02:53:32.694Z,1.50
2018-12-31T02:56:14.775Z,1.50
2018-12-31T02:58:56.571Z,1.60
2018-12-31T03:01:38.872Z,1.60
2018-12-31T03:04:20.709Z,1.80
2018-12-31T03:07:03.078Z,1.90
2018-12-31T03:09:45.518Z,1.90
2018-12-31T03:12:27.439Z,1.80
2018-12-31T03:15:09.762Z,1.90
2018-12-31T03:17:52.093Z,2.00
2018-12-31T03:20:34.029Z,2.10
2018-12-31T03:23:16.211Z,2.10
2018-12-31T03:25:58.019Z,2.20
2018-12-31T03:28:40.220Z,2.20
2018-12-31T03:31:22.545Z,2.20
2018-12-31T03:34:04.836Z,2.20
2018-12-31T03:36:47.272Z,2.20
2018-12-31T03:39:28.984Z,2.10
2018-12-31T03:42:11.183Z,2.00
2018-12-31T03:44:53.355Z,2.00
2018-12-31T03:47:35.441Z,1.90
2018-12-31T03:50:17.467Z,1.90
2018-12-31T03:52:59.641Z,1.90
2018-12-31T03:55:41.451Z,1.90
2018-12-31T03:58:23.658Z,1.90
2018-12-31T04:01:06.086Z,1.90
2018-12-31T04:03:48.564Z,2.00
2018-12-31T04:06:30.559Z,2.10
2018-12-31T04:09:12.253Z,2.20
2018-12-31T04:11:42.770Z,2.10
2018-12-31T04:14:32.203Z,2.20
2018-12-31T04:17:14.363Z,2.20
2018-12-31T04:19:56.687Z,2.20
2018-12-31T04:22:39.410Z,2.20
2018-12-31T04:25:21.245Z,2.20
2018-12-31T04:27:51.819Z,2.30
2018-12-31T04:30:41.441Z,2.30
2018-12-31T04:33:23.760Z,2.30
2018-12-31T04:36:05.891Z,2.30
2018-12-31T04:38:48.027Z,2.40
2018-12-31T04:41:29.996Z,2.30
2018-12-31T04:44:12.086Z,2.30
2018-12-31T04:46:54.477Z,2.30
2018-12-31T04:49:25.127Z,2.30
2018-12-31T04:51:55.427Z,2.30
2018-12-31T04:54:37.507Z,2.40
2018-12-31T04:57:19.520Z,2.40
2018-12-31T05:00:01.508Z,2.40
2018-12-31T05:02:43.952Z,2.40
2018-12-31T05:05:26.071Z,2.30
2018-12-31T05:08:08.431Z,2.30
2018-12-31T05:10:38.858Z,2.30
2018-12-31T05:13:28.436Z,2.30
2018-12-31T05:16:10.476Z,2.30
2018-12-31T05:18:52.528Z,2.30
2018-12-31T05:21:34.855Z,2.30
2018-12-31T05:24:17.256Z,2.20
2018-12-31T05:26:59.689Z,2.20
2018-12-31T05:29:41.923Z,2.20
2018-12-31T05:32:24.099Z,2.20
2018-12-31T05:35:06.431Z,2.20
2018-12-31T05:37:48.379Z,2.20
2018-12-31T05:40:30.384Z,2.20
2018-12-31T05:43:12.567Z,2.30
2018-12-31T05:45:54.843Z,2.30
2018-12-31T05:48:36.851Z,2.30
2018-12-31T05:51:18.560Z,2.30
2018-12-31T05:54:00.945Z,2.30
2018-12-31T05:56:42.893Z,2.20
2018-12-31T05:59:25.383Z,2.30
2018-12-31T06:01:56.280Z,2.30
2018-12-31T06:04:38.659Z,2.30
2018-12-31T06:07:20.687Z,2.30
2018-12-31T06:10:02.571Z,2.30
2018-12-31T06:12:44.741Z,2.40
2018-12-31T06:15:27.022Z,2.40
2018-12-31T06:17:57.770Z,2.40
2018-12-31T06:20:39.775Z,2.40
2018-12-31T06:23:21.758Z,2.40
2018-12-31T06:26:04.321Z,2.40
2018-12-31T06:28:46.500Z,2.40
2018-12-31T06:31:28.199Z,2.40
2018-12-31T06:33:58.983Z,2.40
2018-12-31T06:36:40.606Z,2.40
2018-12-31T06:39:22.903Z,2.40
2018-12-31T06:41:53.403Z,2.40
2018-12-31T06:44:43.028Z,2.40
2018-12-31T06:47:25.191Z,2.40
2018-12-31T06:50:07.427Z,2.40
2018-12-31T06:52:49.651Z,2.40
2018-12-31T06:55:31.547Z,2.40
2018-12-31T06:58:13.656Z,2.40
2018-12-31T07:00:56.082Z,2.30
2018-12-31T07:03:38.456Z,2.30
2018-12-31T07:06:20.626Z,2.40
2018-12-31T07:09:02.503Z,2.40
2018-12-31T07:11:44.718Z,2.40
2018-12-31T07:14:26.883Z,2.40
2018-12-31T07:17:09.324Z,2.40
2018-12-31T07:19:51.365Z,2.40
2018-12-31T07:22:33.693Z,2.50
2018-12-31T07:25:15.975Z,2.50
2018-12-31T07:27:46.482Z,2.50
2018-12-31T07:30:16.963Z,2.50
2018-12-31T07:32:59.383Z,2.60
2018-12-31T07:35:43.603Z,2.60
2018-12-31T07:38:25.861Z,2.60
2018-12-31T07:41:08.088Z,2.70
2018-12-31T07:43:50.367Z,2.70
2018-12-31T07:46:32.451Z,2.70
2018-12-31T07:49:16.476Z,2.80
2018-12-31T07:51:58.831Z,2.80
2018-12-31T07:54:41.252Z,2.80
2018-12-31T07:57:23.764Z,2.80
2018-12-31T07:59:54.167Z,2.80
2018-12-31T08:02:36.483Z,2.90
2018-12-31T08:05:18.574Z,2.90
2018-12-31T08:08:00.907Z,2.90
2018-12-31T08:10:42.911Z,2.90
2018-12-31T08:13:25.187Z,2.90
2018-12-31T08:21:29.019Z,3.10
2018-12-31T08:24:11.035Z,3.00
2018-12-31T08:26:53.303Z,3.00
2018-12-31T08:29:35.484Z,3.00
2018-12-31T08:32:17.305Z,3.00
2018-12-31T08:34:59.526Z,3.00
2018-12-31T08:37:41.773Z,3.10
2018-12-31T08:40:24.183Z,3.10
2018-12-31T08:43:06.556Z,3.10
2018-12-31T08:45:48.407Z,3.10
2018-12-31T08:48:30.288Z,3.20
2018-12-31T08:51:01.171Z,3.20
2018-12-31T08:53:50.727Z,3.20
2018-12-31T08:56:33.395Z,3.30
2018-12-31T08:59:15.811Z,3.30
2018-12-31T09:01:58.004Z,3.30
2018-12-31T09:04:40.383Z,3.40
2018-12-31T09:07:22.482Z,3.40
2018-12-31T09:10:05.774Z,3.40
2018-12-31T09:12:47.427Z,3.50
2018-12-31T09:15:29.515Z,3.50
2018-12-31T09:18:11.887Z,3.50
2018-12-31T09:20:53.894Z,3.50
2018-12-31T09:23:36.129Z,3.50
2018-12-31T09:26:18.451Z,3.60
2018-12-31T09:29:00.387Z,3.60
2018-12-31T09:31:42.456Z,3.60
2018-12-31T09:34:24.559Z,3.70
2018-12-31T09:37:06.643Z,3.80
2018-12-31T09:39:48.467Z,3.80
2018-12-31T09:42:30.544Z,3.90
2018-12-31T09:45:12.663Z,3.90
2018-12-31T09:47:54.831Z,4.00
2018-12-31T09:50:36.986Z,4.00
2018-12-31T09:53:07.779Z,4.00
2018-12-31T09:55:50.140Z,4.10
2018-12-31T09:58:31.968Z,4.20
2018-12-31T10:01:14.318Z,4.20
2018-12-31T10:03:56.675Z,4.30
2018-12-31T10:06:39.091Z,4.40
2018-12-31T10:09:21.341Z,4.40
2018-12-31T10:12:03.363Z,4.50
2018-12-31T10:14:45.946Z,4.50
2018-12-31T10:17:27.607Z,4.60
2018-12-31T10:20:09.348Z,4.60
2018-12-31T10:22:52.437Z,4.70
2018-12-31T10:25:34.475Z,4.70
2018-12-31T10:28:16.671Z,4.70
2018-12-31T10:30:58.709Z,4.80
2018-12-31T10:33:40.387Z,4.90
2018-12-31T10:36:22.283Z,4.90
2018-12-31T10:39:04.905Z,5.00
2018-12-31T10:41:47.002Z,5.00
2018-12-31T10:44:17.439Z,5.10
2018-12-31T10:46:48.028Z,5.10
2018-12-31T10:49:30.375Z,5.10
2018-12-31T10:52:12.495Z,5.20
2018-12-31T10:54:54.747Z,5.30
2018-12-31T10:57:36.774Z,5.30
2018-12-31T11:00:19.371Z,5.30
2018-12-31T11:03:01.692Z,5.40
2018-12-31T11:05:43.894Z,5.40
2018-12-31T11:08:26.031Z,5.40
2018-12-31T11:11:08.611Z,5.40
2018-12-31T11:13:50.728Z,5.40
2018-12-31T11:16:33.067Z,5.50
2018-12-31T11:19:15.320Z,5.50
2018-12-31T11:21:57.706Z,5.50
2018-12-31T11:24:39.871Z,5.50
2018-12-31T11:27:21.762Z,5.60
2018-12-31T11:29:52.338Z,5.60
2018-12-31T11:32:34.573Z,5.60
2018-12-31T11:35:16.391Z,5.70
2018-12-31T11:37:58.631Z,5.80
2018-12-31T11:40:40.738Z,5.80
2018-12-31T11:43:22.831Z,5.90
2018-12-31T11:45:53.364Z,5.90
2018-12-31T11:48:34.131Z,6.00
2018-12-31T11:51:16.080Z,6.00
2018-12-31T11:53:58.691Z,6.00
2018-12-31T11:56:41.039Z,6.10
2018-12-31T11:59:21.735Z,6.20
2018-12-31T12:01:52.295Z,6.20
2018-12-31T12:04:34.577Z,6.20
2018-12-31T12:07:16.626Z,6.20
2018-12-31T12:09:59.607Z,6.30
2018-12-31T12:12:41.528Z,6.30
2018-12-31T12:15:23.623Z,6.30
2018-12-31T12:18:05.819Z,6.40
2018-12-31T12:20:48.272Z,6.40
2018-12-31T12:23:30.676Z,6.50
2018-12-31T12:26:15.907Z,6.50
2018-12-31T12:28:58.025Z,6.50
2018-12-31T12:31:40.402Z,6.50
2018-12-31T12:34:23.099Z,6.50
2018-12-31T12:37:05.395Z,6.50
2018-12-31T12:39:47.411Z,6.60
2018-12-31T12:42:17.922Z,6.60
2018-12-31T12:45:07.351Z,6.60
2018-12-31T12:47:49.900Z,6.60
2018-12-31T12:50:20.739Z,6.70
2018-12-31T12:53:03.299Z,6.70
2018-12-31T12:55:45.551Z,6.70
2018-12-31T12:58:27.845Z,6.70
2018-12-31T13:01:11.040Z,6.80
2018-12-31T13:03:53.314Z,6.80
2018-12-31T13:06:35.307Z,6.80
2018-12-31T13:09:17.747Z,6.80
2018-12-31T13:11:48.140Z,6.90
2018-12-31T13:14:29.820Z,6.90
2018-12-31T13:17:11.930Z,6.90
2018-12-31T13:19:54.451Z,7.00
2018-12-31T13:22:36.618Z,7.10
2018-12-31T13:25:07.094Z,7.10
2018-12-31T13:27:37.522Z,7.20
2018-12-31T13:32:59.518Z,7.30
2018-12-31T13:35:41.347Z,7.30
2018-12-31T13:38:23.298Z,7.30
2018-12-31T13:41:05.778Z,7.40
2018-12-31T13:43:36.195Z,7.40
2018-12-31T13:46:25.572Z,7.40
2018-12-31T13:54:47.863Z,7.60
2018-12-31T13:57:30.287Z,7.50
2018-12-31T14:00:12.063Z,7.60
2018-12-31T14:02:53.811Z,7.50
2018-12-31T14:08:19.285Z,7.50
2018-12-31T14:11:00.636Z,7.60
2018-12-31T14:13:43.083Z,7.60
2018-12-31T14:16:25.032Z,7.60
2018-12-31T14:19:07.183Z,7.60
2018-12-31T14:21:49.213Z,7.60
2018-12-31T14:24:30.159Z,7.60
2018-12-31T14:27:12.011Z,7.60
2018-12-31T14:29:54.657Z,7.60
2018-12-31T14:32:36.592Z,7.60
2018-12-31T14:35:20.011Z,7.60
2018-12-31T14:38:00.739Z,7.60
2018-12-31T14:40:43.202Z,7.70
2018-12-31T14:43:25.451Z,7.70
2018-12-31T14:46:07.628Z,7.70
2018-12-31T14:48:49.664Z,7.70
2018-12-31T14:51:31.959Z,7.70
2018-12-31T14:56:55.138Z,7.60
2018-12-31T14:59:37.292Z,7.60
2018-12-31T15:02:19.795Z,7.50
2018-12-31T15:04:51.110Z,7.60
2018-12-31T15:07:33.076Z,7.60
2018-12-31T15:10:15.456Z,7.50
2018-12-31T15:12:45.916Z,7.50
2018-12-31T15:15:35.449Z,7.50
2018-12-31T15:18:17.224Z,7.60
2018-12-31T15:20:59.062Z,7.50
2018-12-31T15:23:41.375Z,7.50
2018-12-31T15:26:23.517Z,7.50
2018-12-31T15:29:05.505Z,7.50
2018-12-31T15:31:47.605Z,7.50
2018-12-31T15:34:18.235Z,7.50
2018-12-31T15:37:07.664Z,7.50
2018-12-31T15:39:49.898Z,7.50
2018-12-31T15:42:32.076Z,7.40
2018-12-31T15:45:14.335Z,7.50
2018-12-31T15:47:57.398Z,7.40
2018-12-31T15:50:39.865Z,7.50
2018-12-31T15:53:22.739Z,7.40
2018-12-31T15:56:04.900Z,7.50
2018-12-31T15:58:46.645Z,7.40
2018-12-31T16:01:28.435Z,7.40
2018-12-31T16:04:10.459Z,7.40
2018-12-31T16:06:52.472Z,7.40
2018-12-31T16:09:34.958Z,7.40
2018-12-31T16:12:16.916Z,7.40
2018-12-31T16:17:36.615Z,7.30
2018-12-31T16:25:40.968Z,7.40
2018-12-31T16:28:11.417Z,7.40
2018-12-31T16:30:42.055Z,7.30
2018-12-31T16:33:25.089Z,7.40
2018-12-31T16:36:07.483Z,7.40
2018-12-31T16:38:49.244Z,7.30
2018-12-31T16:41:31.500Z,7.30
2018-12-31T16:44:13.420Z,7.30
2018-12-31T16:46:55.653Z,7.30
2018-12-31T16:49:37.983Z,7.30
2018-12-31T16:52:19.606Z,7.30
2018-12-31T16:55:01.534Z,7.30
2018-12-31T16:57:44.115Z,7.30
2018-12-31T17:00:26.828Z,7.40
2018-12-31T17:03:09.055Z,7.40
2018-12-31T17:05:51.488Z,7.40
2018-12-31T17:08:33.699Z,7.40
2018-12-31T17:11:16.428Z,7.50
2018-12-31T17:13:58.745Z,7.50
2018-12-31T17:16:40.983Z,7.50
2018-12-31T17:19:23.405Z,7.50
2018-12-31T17:22:05.518Z,7.50
2018-12-31T17:24:47.080Z,7.60
2018-12-31T17:27:29.416Z,7.60
2018-12-31T17:30:11.488Z,7.50
2018-12-31T17:32:53.603Z,7.50
2018-12-31T17:35:35.789Z,7.50
2018-12-31T17:38:18.143Z,7.50
2018-12-31T17:41:00.444Z,7.50
2018-12-31T17:43:42.511Z,7.50
2018-12-31T17:46:25.116Z,7.50
2018-12-31T17:49:07.411Z,7.50
2018-12-31T17:51:55.702Z,7.50
2018-12-31T17:54:33.679Z,7.50
2018-12-31T17:57:15.876Z,7.50
2018-12-31T17:59:57.570Z,7.50
2018-12-31T18:02:39.939Z,7.50
2018-12-31T18:05:22.103Z,7.50
2018-12-31T18:08:04.428Z,7.50
2018-12-31T18:10:46.764Z,7.50
2018-12-31T18:13:28.803Z,7.50
2018-12-31T18:16:10.812Z,7.50
2018-12-31T18:18:52.764Z,7.50
2018-12-31T18:21:34.631Z,7.50
2018-12-31T18:24:16.676Z,7.50
2018-12-31T18:26:59.371Z,7.50
2018-12-31T18:29:30.107Z,7.50
2018-12-31T18:32:12.263Z,7.50
2018-12-31T18:34:54.561Z,7.50
2018-12-31T18:37:41.657Z,7.50
2018-12-31T18:40:22.325Z,7.50
2018-12-31T18:43:04.312Z,7.50
2018-12-31T18:45:46.003Z,7.40
2018-12-31T18:48:27.971Z,7.50
2018-12-31T18:51:09.924Z,7.50
2018-12-31T18:53:52.215Z,7.50
2018-12-31T18:56:34.426Z,7.50
2018-12-31T18:59:16.617Z,7.60
2018-12-31T19:01:58.416Z,7.60
2018-12-31T19:04:40.479Z,7.60
2018-12-31T19:07:22.376Z,7.60
2018-12-31T19:10:04.307Z,7.60
2018-12-31T19:12:46.512Z,7.60
2018-12-31T19:15:28.797Z,7.60
2018-12-31T19:18:10.651Z,7.60
2018-12-31T19:20:52.783Z,7.60
2018-12-31T19:23:35.207Z,7.60
2018-12-31T19:26:05.656Z,7.60
2018-12-31T19:28:36.300Z,7.60
2018-12-31T19:31:25.911Z,7.60
2018-12-31T19:34:07.504Z,7.60
2018-12-31T19:36:49.635Z,7.60
2018-12-31T19:39:20.203Z,7.70
2018-12-31T19:42:09.644Z,7.70
2018-12-31T19:44:40.131Z,7.70
2018-12-31T19:47:29.815Z,7.70
2018-12-31T19:50:12.242Z,7.70
2018-12-31T19:52:54.513Z,7.70
2018-12-31T19:55:36.823Z,7.60
2018-12-31T19:58:19.179Z,7.70
2018-12-31T20:01:01.870Z,7.60
2018-12-31T20:03:44.763Z,7.60
2018-12-31T20:06:26.955Z,7.60
2018-12-31T20:09:09.487Z,7.60
2018-12-31T20:11:51.366Z,7.60
2018-12-31T20:14:33.227Z,7.60
2018-12-31T20:17:15.600Z,7.60
2018-12-31T20:19:57.859Z,7.60
2018-12-31T20:22:39.793Z,7.60
2018-12-31T20:25:21.690Z,7.60
2018-12-31T20:28:06.042Z,7.60
2018-12-31T20:30:47.723Z,7.60
2018-12-31T20:33:29.996Z,7.60
2018-12-31T20:36:12.027Z,7.60
2018-12-31T20:38:54.831Z,7.60
2018-12-31T20:41:37.023Z,7.60
2018-12-31T20:44:19.147Z,7.60
2018-12-31T20:47:01.101Z,7.50
2018-12-31T20:49:43.215Z,7.50
2018-12-31T20:52:25.667Z,7.50
2018-12-31T20:55:07.531Z,7.50
2018-12-31T20:57:49.838Z,7.40
2018-12-31T21:00:32.224Z,7.40
2018-12-31T21:03:13.903Z,7.40
2018-12-31T21:05:56.329Z,7.40
2018-12-31T21:08:38.505Z,7.40
2018-12-31T21:11:20.817Z,7.50
2018-12-31T21:14:03.291Z,7.50
2018-12-31T21:16:44.911Z,7.50
2018-12-31T21:19:26.963Z,7.50
2018-12-31T21:22:09.075Z,7.50
2018-12-31T21:24:51.403Z,7.50
2018-12-31T21:27:33.606Z,7.50
2018-12-31T21:30:15.731Z,7.50
2018-12-31T21:32:58.194Z,7.50
2018-12-31T21:35:41.071Z,7.50
2018-12-31T21:38:23.853Z,7.50
2018-12-31T21:41:06.198Z,7.40
2018-12-31T21:43:48.200Z,7.40
2018-12-31T21:46:30.153Z,7.40
2018-12-31T21:49:12.067Z,7.40
2018-12-31T21:51:54.466Z,7.40
2018-12-31T21:54:36.598Z,7.50
2018-12-31T21:57:18.806Z,7.50
2018-12-31T22:00:00.828Z,7.50
2018-12-31T22:02:42.459Z,7.50
2018-12-31T22:05:24.911Z,7.50
2018-12-31T22:08:06.896Z,7.50
2018-12-31T22:10:48.896Z,7.50
2018-12-31T22:13:30.888Z,7.50
2018-12-31T22:16:13.079Z,7.50
2018-12-31T22:18:55.328Z,7.40
2018-12-31T22:21:25.735Z,7.30
2018-12-31T22:29:55.783Z,7.30
2018-12-31T22:32:37.666Z,7.30
2018-12-31T22:35:19.839Z,7.20
2018-12-31T22:38:02.380Z,7.20
2018-12-31T22:40:44.555Z,7.20
2018-12-31T22:43:26.871Z,7.20
2018-12-31T22:46:09.311Z,7.20
2018-12-31T22:48:51.029Z,7.20
2018-12-31T22:51:33.091Z,7.30
2018-12-31T22:54:15.047Z,7.30
2018-12-31T22:56:57.227Z,7.30
2018-12-31T22:59:39.248Z,7.30
2018-12-31T23:02:21.653Z,7.30
2018-12-31T23:05:04.002Z,7.30
2018-12-31T23:07:46.571Z,7.40
2018-12-31T23:10:28.355Z,7.40
2018-12-31T23:13:10.247Z,7.40
2018-12-31T23:15:52.811Z,7.40
2018-12-31T23:18:35.319Z,7.50
2018-12-31T23:21:17.495Z,7.50
2018-12-31T23:23:48.168Z,7.50
2018-12-31T23:26:37.759Z,7.50
2018-12-31T23:29:19.879Z,7.60
2018-12-31T23:32:02.008Z,7.60
2018-12-31T23:34:44.564Z,7.60
2018-12-31T23:37:27.183Z,7.60
2018-12-31T23:40:09.413Z,7.60
2018-12-31T23:42:52.028Z,7.60
2018-12-31T23:45:34.260Z,7.60
2018-12-31T23:48:16.622Z,7.60
2018-12-31T23:50:58.858Z,7.60
2018-12-31T23:53:40.995Z,7.60
2018-12-31T23:56:24.623Z,7.60
2018-12-31T23:59:06.739Z,7.60
